Time;durP1;ratioP1;P1;durP2;ratioP2;P2;SDS_P1;SDS_P2;PMS_P1;PMS_P2;Temp;Humidity;BMP_temperature;BMP_pressure;BME280_temperature;BME280_humidity;BME280_pressure;Samples;Min_cycle;Max_cycle;Signal;HPM_P1;HPM_P2
2021/05/31 00:02:21;;;;;;;7.80;3.60;;;16.00;64.80;;;;;;5095313;28;20028;-84
2021/05/31 00:04:46;;;;;;;5.30;3.30;;;16.00;64.80;;;;;;5075012;28;20035;-84
2021/05/31 00:07:18;;;;;;;4.60;3.47;;;15.90;64.90;;;;;;5069067;28;20020;-84
2021/05/31 00:09:45;;;;;;;8.18;3.70;;;15.90;65.10;;;;;;5093228;28;20031;-84
2021/05/31 00:12:14;;;;;;;6.47;3.85;;;15.90;65.10;;;;;;5058808;28;20085;-84
2021/05/31 00:14:40;;;;;;;;;;;15.90;65.10;;;;;;5095246;28;20052;-84
2021/05/31 00:17:05;;;;;;;5.68;3.30;;;15.90;64.90;;;;;;5077946;28;20395;-84
2021/05/31 00:19:32;;;;;;;6.68;3.53;;;15.80;65.30;;;;;;5091968;28;20385;-84
2021/05/31 00:21:58;;;;;;;6.30;4.00;;;15.80;65.30;;;;;;5094695;28;20115;-84
2021/05/31 00:24:24;;;;;;;3.95;3.30;;;15.80;65.10;;;;;;5072838;28;20024;-84
2021/05/31 00:26:50;;;;;;;4.97;3.97;;;15.80;65.10;;;;;;5106217;28;20031;-84
2021/05/31 00:29:24;;;;;;;8.15;3.60;;;15.80;65.10;;;;;;5094683;28;20106;-84
2021/05/31 00:31:54;;;;;;;5.15;3.30;;;15.80;65.10;;;;;;5092726;28;20423;-84
2021/05/31 00:34:20;;;;;;;3.80;3.10;;;15.80;65.60;;;;;;5112703;28;20039;-84
2021/05/31 00:36:46;;;;;;;6.28;3.88;;;15.80;65.00;;;;;;5112642;28;20035;-84
2021/05/31 00:39:12;;;;;;;4.10;3.45;;;15.80;65.00;;;;;;5085979;28;20066;-84
2021/05/31 00:41:43;;;;;;;5.47;3.83;;;15.70;65.10;;;;;;5112718;28;20038;-84
2021/05/31 00:44:09;;;;;;;6.07;3.28;;;15.70;65.20;;;;;;5095742;28;20019;-84
2021/05/31 00:46:34;;;;;;;7.00;3.60;;;15.70;65.50;;;;;;5116695;28;20032;-84
2021/05/31 00:49:02;;;;;;;4.43;3.50;;;15.70;65.70;;;;;;5079265;28;20066;-84
2021/05/31 00:51:28;;;;;;;7.38;3.63;;;15.60;65.70;;;;;;5116188;28;20043;-83
2021/05/31 00:53:54;;;;;;;6.13;3.92;;;15.50;65.90;;;;;;5077413;28;20032;-84
2021/05/31 00:56:19;;;;;;;6.90;4.05;;;15.50;66.10;;;;;;5110850;28;20076;-83
2021/05/31 00:58:45;;;;;;;6.03;4.05;;;15.40;66.20;;;;;;5098070;28;20388;-83
2021/05/31 01:01:10;;;;;;;5.63;3.75;;;15.40;66.50;;;;;;5077646;28;20039;-83
2021/05/31 01:03:36;;;;;;;5.53;4.22;;;15.40;66.60;;;;;;5112860;28;20035;-84
2021/05/31 01:06:06;;;;;;;6.38;3.90;;;15.40;66.50;;;;;;5093534;28;20031;-84
2021/05/31 01:09:01;;;;;;;6.30;3.95;;;15.40;66.60;;;;;;5088066;28;20059;-84
2021/05/31 01:11:40;;;;;;;8.10;4.55;;;15.30;66.80;;;;;;5097512;28;20388;-84
2021/05/31 01:14:12;;;;;;;6.38;3.83;;;15.30;66.90;;;;;;5115877;28;20055;-83
2021/05/31 01:16:53;;;;;;;6.43;3.70;;;15.20;67.00;;;;;;5094420;28;20372;-84
2021/05/31 01:19:53;;;;;;;6.50;3.92;;;15.10;67.20;;;;;;5112614;28;20043;-84
2021/05/31 01:22:24;;;;;;;7.70;4.15;;;15.10;67.40;;;;;;5093869;28;20028;-84
2021/05/31 01:24:49;;;;;;;8.95;4.10;;;15.00;67.60;;;;;;5095805;28;20058;-83
2021/05/31 01:27:24;;;;;;;7.55;4.05;;;15.00;67.80;;;;;;5097221;28;20055;-84
2021/05/31 01:30:16;;;;;;;6.82;4.60;;;14.90;68.00;;;;;;5114454;28;20495;-83
2021/05/31 01:32:52;;;;;;;8.20;4.38;;;14.90;68.20;;;;;;5091900;28;20023;-83
2021/05/31 01:35:30;;;;;;;6.07;4.55;;;14.90;68.50;;;;;;5108982;28;20030;-83
2021/05/31 01:37:57;;;;;;;7.47;4.53;;;14.80;68.70;;;;;;5108037;28;20031;-83
2021/05/31 01:40:23;;;;;;;5.25;4.22;;;14.70;68.70;;;;;;5092811;28;20024;-83
2021/05/31 01:42:52;;;;;;;7.90;4.70;;;14.70;69.40;;;;;;5083497;28;20031;-84
2021/05/31 01:45:19;;;;;;;6.85;4.68;;;14.70;68.90;;;;;;5115269;28;20019;-83
2021/05/31 01:47:45;;;;;;;7.35;5.47;;;14.70;69.00;;;;;;5094712;28;20028;-83
2021/05/31 01:50:13;;;;;;;8.27;4.90;;;14.60;68.80;;;;;;5114854;28;20476;-83
2021/05/31 01:52:41;;;;;;;6.05;4.57;;;14.70;68.90;;;;;;5115146;28;20050;-83
2021/05/31 01:55:08;;;;;;;6.47;4.87;;;14.60;69.00;;;;;;5095888;28;20031;-83
2021/05/31 01:57:35;;;;;;;6.82;5.10;;;14.60;68.90;;;;;;5096473;28;20193;-83
2021/05/31 02:00:05;;;;;;;6.85;4.93;;;14.60;69.10;;;;;;5096534;28;20796;-84
2021/05/31 02:02:31;;;;;;;7.70;4.90;;;14.60;69.20;;;;;;5088127;28;20038;-83
2021/05/31 02:04:57;;;;;;;9.73;5.00;;;14.60;69.30;;;;;;5115036;28;20019;-84
2021/05/31 02:07:22;;;;;;;9.48;4.90;;;14.50;69.30;;;;;;5076071;28;20039;-83
2021/05/31 02:09:48;;;;;;;8.27;5.05;;;14.50;69.50;;;;;;5108207;28;20115;-84
2021/05/31 02:12:14;;;;;;;9.93;4.88;;;14.50;70.20;;;;;;5078000;28;20067;-84
2021/05/31 02:15:04;;;;;;;7.45;5.15;;;14.50;69.70;;;;;;5073672;28;20118;-83
2021/05/31 02:18:07;;;;;;;8.52;4.60;;;14.40;70.00;;;;;;5085680;28;20020;-83
2021/05/31 02:20:35;;;;;;;8.30;5.30;;;14.40;70.10;;;;;;5095895;28;20032;-84
2021/05/31 02:23:04;;;;;;;7.25;5.20;;;14.40;70.20;;;;;;5068330;28;20027;-83
2021/05/31 02:25:30;;;;;;;6.47;4.97;;;14.40;70.40;;;;;;5092769;28;20023;-84
2021/05/31 02:27:58;;;;;;;9.35;5.22;;;14.40;70.40;;;;;;5079478;28;20034;-84
2021/05/31 02:30:25;;;;;;;7.03;5.35;;;14.30;70.40;;;;;;5084649;28;20024;-84
2021/05/31 02:32:50;;;;;;;10.40;5.85;;;14.30;70.60;;;;;;5102020;28;20027;-83
2021/05/31 02:35:16;;;;;;;11.40;5.90;;;14.30;70.80;;;;;;5096009;28;20476;-83
2021/05/31 02:37:42;;;;;;;7.03;5.55;;;14.20;70.90;;;;;;5095944;28;20088;-83
2021/05/31 02:40:09;;;;;;;8.10;5.10;;;14.20;70.90;;;;;;5096006;28;20032;-83
2021/05/31 02:42:39;;;;;;;7.63;5.43;;;14.10;71.00;;;;;;5092120;28;20020;-83
2021/05/31 02:45:06;;;;;;;6.80;5.18;;;14.10;71.20;;;;;;5094702;28;20050;-84
2021/05/31 02:47:32;;;;;;;6.68;5.07;;;14.10;71.40;;;;;;5078947;28;20103;-83
2021/05/31 02:49:58;;;;;;;10.25;5.82;;;14.00;71.40;;;;;;5114027;28;20098;-83
2021/05/31 02:52:23;;;;;;;9.40;5.63;;;14.00;71.60;;;;;;5075301;28;20043;-83
2021/05/31 02:54:49;;;;;;;8.48;5.28;;;14.00;71.70;;;;;;5093537;28;20023;-83
2021/05/31 02:57:15;;;;;;;7.88;5.72;;;14.00;71.80;;;;;;5108048;28;20031;-83
2021/05/31 02:59:40;;;;;;;8.02;6.10;;;13.90;71.80;;;;;;5108236;28;20114;-84
2021/05/31 03:02:06;;;;;;;7.50;6.03;;;13.90;71.90;;;;;;5113916;28;20022;-85
2021/05/31 03:04:31;;;;;;;7.20;5.80;;;13.90;72.00;;;;;;5113923;28;20020;-83
2021/05/31 03:06:57;;;;;;;8.88;6.22;;;13.80;72.10;;;;;;5094747;28;20028;-84
2021/05/31 03:09:23;;;;;;;10.15;6.35;;;13.80;72.20;;;;;;5093601;28;20516;-84
2021/05/31 03:11:48;;;;;;;9.38;6.03;;;13.80;72.30;;;;;;5105824;28;20032;-83
2021/05/31 03:14:14;;;;;;;8.52;6.18;;;13.70;72.50;;;;;;5095376;28;20392;-84
2021/05/31 03:16:40;;;;;;;7.50;6.20;;;13.70;72.50;;;;;;5095422;28;20035;-83
2021/05/31 03:19:06;;;;;;;8.82;5.72;;;13.70;72.60;;;;;;5095963;28;20492;-83
2021/05/31 03:21:32;;;;;;;7.72;6.40;;;13.70;72.70;;;;;;5066015;28;20077;-84
2021/05/31 03:23:57;;;;;;;9.60;5.97;;;13.60;72.80;;;;;;5070722;28;20150;-83
2021/05/31 03:26:23;;;;;;;7.85;6.53;;;13.60;72.90;;;;;;5071829;28;20032;-83
2021/05/31 03:28:49;;;;;;;10.00;6.97;;;13.60;73.10;;;;;;5095139;28;20956;-83
2021/05/31 03:31:14;;;;;;;10.00;6.32;;;13.50;73.20;;;;;;5075054;28;20023;-83
2021/05/31 03:33:40;;;;;;;8.98;6.00;;;13.50;73.40;;;;;;5073880;28;20024;-84
2021/05/31 03:36:05;;;;;;;8.63;6.25;;;13.50;73.60;;;;;;5095410;28;20385;-83
2021/05/31 03:38:31;;;;;;;8.73;6.93;;;13.50;73.80;;;;;;5095354;28;20024;-83
2021/05/31 03:40:57;;;;;;;12.07;6.50;;;13.50;73.80;;;;;;5095043;28;20084;-83
2021/05/31 03:43:22;;;;;;;7.43;6.00;;;13.50;73.80;;;;;;5113707;28;20049;-83
2021/05/31 03:45:48;;;;;;;10.52;6.38;;;13.50;73.90;;;;;;5072876;28;20067;-83
2021/05/31 03:48:13;;;;;;;13.35;7.10;;;13.50;74.00;;;;;;5094895;28;20140;-83
2021/05/31 03:50:39;;;;;;;10.10;6.78;;;13.50;74.10;;;;;;5061914;28;20059;-83
2021/05/31 03:53:05;;;;;;;9.13;6.47;;;13.40;74.30;;;;;;5088513;28;20567;-83
2021/05/31 03:55:31;;;;;;;8.80;6.55;;;13.40;74.30;;;;;;5071556;28;20028;-83
2021/05/31 03:57:57;;;;;;;8.43;6.38;;;13.40;75.10;;;;;;5067784;28;20047;-83
2021/05/31 04:00:23;;;;;;;11.95;7.30;;;13.40;74.60;;;;;;5078784;28;20027;-83
2021/05/31 04:02:49;;;;;;;13.75;7.05;;;13.40;74.70;;;;;;5075040;28;20036;-84
2021/05/31 04:05:16;;;;;;;11.70;6.72;;;13.50;74.80;;;;;;5086609;28;20495;-83
2021/05/31 04:13:12;;;;;;;10.90;7.30;;;13.40;75.00;;;;;;5113180;28;20101;-83
2021/05/31 04:15:38;;;;;;;8.13;6.68;;;13.40;75.20;;;;;;5112851;28;20032;-83
2021/05/31 04:18:04;;;;;;;8.98;6.60;;;13.40;75.10;;;;;;5077814;28;20054;-83
2021/05/31 04:20:30;;;;;;;11.40;7.82;;;13.50;75.20;;;;;;5098409;28;20541;-83
2021/05/31 04:22:55;;;;;;;10.65;6.53;;;13.50;75.00;;;;;;5098968;28;20114;-83
2021/05/31 04:25:21;;;;;;;11.95;7.10;;;13.60;74.80;;;;;;5082035;28;20059;-83
2021/05/31 04:27:47;;;;;;;11.40;7.25;;;13.60;75.00;;;;;;5098793;28;20118;-83
2021/05/31 04:30:13;;;;;;;12.77;7.63;;;13.60;74.70;;;;;;5082047;28;20456;-83
2021/05/31 04:32:38;;;;;;;9.35;7.00;;;13.70;74.70;;;;;;5093077;28;20036;-83
2021/05/31 04:35:05;;;;;;;11.18;7.53;;;13.70;74.70;;;;;;5116661;28;20066;-83
2021/05/31 04:37:33;;;;;;;10.90;7.30;;;13.70;74.70;;;;;;5098438;28;20039;-83
2021/05/31 04:39:58;;;;;;;9.02;7.15;;;13.70;74.70;;;;;;5080245;28;20027;-83
2021/05/31 04:42:24;;;;;;;13.23;8.27;;;13.80;74.80;;;;;;5096845;28;20115;-84
2021/05/31 04:44:50;;;;;;;17.67;7.35;;;13.80;74.70;;;;;;5096865;28;20028;-84
2021/05/31 04:47:15;;;;;;;9.73;6.90;;;13.80;74.70;;;;;;5097232;28;20036;-83
2021/05/31 04:49:41;;;;;;;12.85;7.72;;;13.90;74.70;;;;;;5091029;28;20077;-83
2021/05/31 04:52:06;;;;;;;10.95;7.72;;;13.90;74.70;;;;;;5091559;28;20078;-83
2021/05/31 04:54:32;;;;;;;12.82;7.47;;;13.90;74.70;;;;;;5096226;28;20362;-83
2021/05/31 04:56:58;;;;;;;12.43;7.40;;;14.00;74.70;;;;;;5081317;28;20038;-83
2021/05/31 04:59:23;;;;;;;11.82;8.35;;;14.00;74.60;;;;;;5081276;28;20093;-83
2021/05/31 05:01:49;;;;;;;13.52;8.52;;;14.00;74.50;;;;;;5087437;28;20107;-83
2021/05/31 05:04:14;;;;;;;9.13;7.05;;;14.10;74.70;;;;;;5094468;28;20056;-84
2021/05/31 05:06:41;;;;;;;13.85;7.65;;;14.10;74.60;;;;;;5062136;28;20089;-84
2021/05/31 05:09:06;;;;;;;12.55;8.80;;;14.20;74.60;;;;;;5116315;28;20028;-83
2021/05/31 05:11:32;;;;;;;14.80;8.55;;;14.20;74.40;;;;;;5080934;28;20114;-83
2021/05/31 05:13:58;;;;;;;9.85;7.50;;;14.30;74.30;;;;;;5081084;28;20059;-83
2021/05/31 05:16:23;;;;;;;11.60;8.38;;;14.40;74.10;;;;;;5081607;28;20036;-82
2021/05/31 05:18:50;;;;;;;16.55;8.35;;;14.40;74.10;;;;;;5095771;28;20481;-83
2021/05/31 05:21:17;;;;;;;15.63;8.68;;;14.40;73.90;;;;;;5097613;28;20020;-83
2021/05/31 05:23:47;;;;;;;11.43;8.07;;;14.50;74.00;;;;;;5116073;28;20028;-83
2021/05/31 05:26:13;;;;;;;15.50;8.68;;;14.50;74.00;;;;;;5097536;28;20589;-83
2021/05/31 05:28:39;;;;;;;13.02;8.55;;;14.50;73.90;;;;;;5097521;28;20024;-83
2021/05/31 05:31:09;;;;;;;14.60;8.55;;;14.60;73.70;;;;;;5097296;28;20510;-83
2021/05/31 05:33:42;;;;;;;14.30;9.32;;;14.70;73.60;;;;;;5097203;28;20034;-83
2021/05/31 05:36:42;;;;;;;15.65;8.57;;;14.80;73.50;;;;;;5115573;28;20024;-82
2021/05/31 05:39:47;;;;;;;14.43;8.70;;;14.90;73.30;;;;;;5111979;28;20043;-83
2021/05/31 05:44:25;;;;;;;9.65;8.63;;;15.00;72.20;;;;;;5115707;28;20028;-83
2021/05/31 05:49:35;;;;;;;15.13;9.07;;;15.20;71.50;;;;;;5077069;28;20058;-83
2021/05/31 05:52:01;;;;;;;16.08;9.10;;;15.30;71.50;;;;;;5080358;28;20489;-83
2021/05/31 05:54:27;;;;;;;11.70;7.43;;;15.30;71.30;;;;;;5115913;28;20036;-83
2021/05/31 05:56:52;;;;;;;14.45;8.32;;;15.40;71.30;;;;;;5080637;28;20038;-83
2021/05/31 05:59:18;;;;;;;11.35;7.85;;;15.40;71.10;;;;;;5097436;28;20035;-82
2021/05/31 06:01:44;;;;;;;13.07;8.60;;;15.50;70.60;;;;;;5110156;28;20488;-82
2021/05/31 06:04:10;;;;;;;14.55;8.82;;;15.60;70.40;;;;;;5072120;28;20460;-83
2021/05/31 06:06:35;;;;;;;14.80;8.85;;;15.60;70.10;;;;;;5096129;28;20037;-83
2021/05/31 06:09:01;;;;;;;12.77;8.23;;;15.70;70.10;;;;;;5115428;28;20027;-82
2021/05/31 06:11:27;;;;;;;13.68;8.57;;;15.80;70.00;;;;;;5063468;28;20031;-83
2021/05/31 06:13:52;;;;;;;12.98;8.30;;;16.00;69.80;;;;;;5115622;28;20034;-83
2021/05/31 06:16:19;;;;;;;12.35;8.52;;;16.00;69.20;;;;;;5079714;28;20501;-83
2021/05/31 06:18:45;;;;;;;13.82;9.10;;;16.10;68.80;;;;;;5096987;28;20028;-83
2021/05/31 06:21:11;;;;;;;15.05;8.32;;;16.20;68.80;;;;;;5080332;28;20107;-82
2021/05/31 06:23:36;;;;;;;16.20;8.93;;;16.30;68.80;;;;;;5079941;28;20043;-83
2021/05/31 06:26:02;;;;;;;14.20;8.93;;;16.40;68.90;;;;;;5097191;28;20402;-83
2021/05/31 06:28:28;;;;;;;16.17;8.55;;;16.50;68.50;;;;;;5051662;28;20424;-82
2021/05/31 06:30:53;;;;;;;17.85;8.05;;;16.60;68.00;;;;;;5092253;28;20024;-82
2021/05/31 06:33:19;;;;;;;14.68;8.75;;;16.70;67.60;;;;;;5094694;28;20036;-85
2021/05/31 06:35:46;;;;;;;17.15;9.43;;;16.80;67.00;;;;;;5096645;28;20031;-83
2021/05/31 06:38:13;;;;;;;14.93;8.65;;;17.00;66.50;;;;;;5096669;28;20023;-82
2021/05/31 06:40:39;;;;;;;14.55;9.25;;;17.10;66.30;;;;;;5096807;28;20030;-82
2021/05/31 06:43:05;;;;;;;17.27;9.05;;;17.20;66.00;;;;;;5105173;28;20453;-83
2021/05/31 06:45:31;;;;;;;14.93;9.68;;;17.30;65.60;;;;;;5076299;28;20024;-83
2021/05/31 06:48:03;;;;;;;15.10;8.52;;;17.50;65.30;;;;;;5076243;28;20032;-83
2021/05/31 06:50:31;;;;;;;14.30;8.45;;;17.50;65.50;;;;;;5076108;28;20024;-83
2021/05/31 06:52:58;;;;;;;12.60;8.23;;;17.70;64.40;;;;;;5075813;28;20075;-83
2021/05/31 06:55:25;;;;;;;12.45;8.20;;;17.80;63.70;;;;;;5094169;28;20028;-83
2021/05/31 06:57:51;;;;;;;14.05;7.68;;;18.00;63.30;;;;;;5094223;28;20020;-83
2021/05/31 07:00:19;;;;;;;15.10;7.38;;;18.20;62.90;;;;;;5076175;28;20032;-83
2021/05/31 07:02:45;;;;;;;12.98;7.07;;;18.40;62.40;;;;;;5093894;28;20395;-83
2021/05/31 07:05:11;;;;;;;15.38;7.32;;;18.50;61.80;;;;;;5059291;28;20020;-83
2021/05/31 07:07:38;;;;;;;12.18;7.43;;;18.70;61.10;;;;;;5093923;28;20024;-83
2021/05/31 07:10:09;;;;;;;12.27;7.28;;;18.80;60.70;;;;;;5076159;28;20028;-83
2021/05/31 07:12:35;;;;;;;19.17;7.85;;;18.90;59.90;;;;;;5093851;28;20028;-83
2021/05/31 07:15:04;;;;;;;13.50;7.35;;;19.00;59.90;;;;;;5075768;28;20500;-83
2021/05/31 07:17:35;;;;;;;14.02;8.23;;;19.20;60.30;;;;;;5075306;28;20111;-83
2021/05/31 07:20:03;;;;;;;9.88;6.80;;;19.30;58.80;;;;;;5075380;28;20016;-84
2021/05/31 07:22:29;;;;;;;13.90;6.63;;;19.40;57.90;;;;;;5058725;28;20119;-83
2021/05/31 07:24:55;;;;;;;10.90;6.38;;;19.50;57.50;;;;;;5075439;28;20114;-84
2021/05/31 07:27:21;;;;;;;17.52;7.00;;;19.60;57.80;;;;;;5075537;28;20024;-84
2021/05/31 07:29:47;;;;;;;13.32;6.00;;;19.70;57.00;;;;;;5075691;28;20028;-84
2021/05/31 07:32:14;;;;;;;13.90;7.30;;;19.80;56.70;;;;;;5075573;28;20050;-83
2021/05/31 07:34:39;;;;;;;12.63;7.07;;;20.00;55.80;;;;;;5093696;28;20461;-84
2021/05/31 07:37:06;;;;;;;13.43;6.80;;;20.00;55.00;;;;;;5058645;28;20052;-83
2021/05/31 07:39:32;;;;;;;13.25;6.20;;;20.00;55.20;;;;;;5075523;28;20442;-83
2021/05/31 07:41:57;;;;;;;12.77;5.90;;;20.10;55.30;;;;;;5076177;28;20028;-83
2021/05/31 07:44:23;;;;;;;7.50;4.95;;;20.20;55.40;;;;;;5093464;28;20043;-83
2021/05/31 07:46:49;;;;;;;9.38;5.45;;;20.40;55.70;;;;;;5075687;28;20054;-83
2021/05/31 07:49:14;;;;;;;9.25;5.78;;;20.60;55.70;;;;;;5093825;28;20385;-84
2021/05/31 07:51:45;;;;;;;11.38;5.97;;;20.70;55.00;;;;;;5075315;28;20036;-85
2021/05/31 07:54:11;;;;;;;9.75;5.60;;;20.80;54.70;;;;;;5060853;28;20190;-84
2021/05/31 07:56:37;;;;;;;11.18;5.53;;;21.00;54.80;;;;;;5080079;28;20471;-84
2021/05/31 07:59:03;;;;;;;10.90;4.75;;;21.10;54.00;;;;;;5079564;28;20039;-83
2021/05/31 08:01:29;;;;;;;8.45;4.60;;;21.20;53.80;;;;;;5081401;28;20035;-84
2021/05/31 08:03:55;;;;;;;7.50;4.80;;;21.40;53.80;;;;;;5079327;28;20028;-84
2021/05/31 08:06:21;;;;;;;11.20;4.90;;;21.60;53.40;;;;;;5079369;28;20035;-83
2021/05/31 08:08:47;;;;;;;9.20;5.03;;;21.70;52.70;;;;;;5079105;28;20028;-84
2021/05/31 08:11:13;;;;;;;9.05;4.90;;;21.90;52.10;;;;;;5079079;28;20024;-84
2021/05/31 08:13:39;;;;;;;8.38;4.00;;;21.80;50.00;;;;;;5079039;28;20032;-84
2021/05/31 08:16:06;;;;;;;8.85;4.43;;;21.90;50.40;;;;;;5096913;28;20032;-83
2021/05/31 08:18:32;;;;;;;9.60;4.25;;;22.00;50.00;;;;;;5078949;28;20024;-84
2021/05/31 08:20:59;;;;;;;10.20;4.68;;;22.00;49.60;;;;;;5108959;28;20406;-83
2021/05/31 08:23:24;;;;;;;7.57;4.30;;;22.10;49.70;;;;;;5098795;28;20032;-84
2021/05/31 08:25:50;;;;;;;10.65;3.97;;;22.30;50.10;;;;;;5117189;28;20034;-84
2021/05/31 08:28:16;;;;;;;19.27;4.75;;;22.40;50.20;;;;;;5099045;28;20032;-84
2021/05/31 08:30:43;;;;;;;6.45;4.05;;;22.60;49.80;;;;;;5104382;28;20532;-84
2021/05/31 08:33:09;;;;;;;8.52;4.30;;;22.70;49.90;;;;;;5096820;28;20153;-84
2021/05/31 08:35:44;;;;;;;10.30;4.10;;;22.70;47.90;;;;;;5078552;28;20423;-84
2021/05/31 08:38:10;;;;;;;7.35;3.47;;;22.70;47.90;;;;;;5096404;28;20031;-84
2021/05/31 08:40:36;;;;;;;6.80;3.40;;;22.70;48.30;;;;;;5078509;28;20028;-84
2021/05/31 08:43:03;;;;;;;7.60;3.38;;;22.80;48.20;;;;;;5078417;28;20027;-84
2021/05/31 08:45:30;;;;;;;5.53;3.35;;;23.00;48.10;;;;;;5078691;28;20035;-83
2021/05/31 08:47:58;;;;;;;8.93;3.50;;;23.30;47.50;;;;;;5096451;28;20111;-84
2021/05/31 08:50:27;;;;;;;5.50;3.05;;;23.40;47.10;;;;;;5078043;28;20077;-84
2021/05/31 08:52:54;;;;;;;5.97;3.47;;;23.50;46.10;;;;;;5096484;28;20500;-84
2021/05/31 08:55:22;;;;;;;6.13;3.50;;;23.60;45.20;;;;;;5061513;28;20036;-83
2021/05/31 08:57:50;;;;;;;6.38;3.58;;;23.60;44.90;;;;;;5096332;28;20033;-84
2021/05/31 09:00:18;;;;;;;9.97;3.90;;;23.60;44.40;;;;;;5078155;28;20028;-84
2021/05/31 09:02:44;;;;;;;6.63;3.22;;;23.60;44.60;;;;;;5077826;28;20034;-84
2021/05/31 09:05:10;;;;;;;6.93;3.33;;;23.50;45.00;;;;;;5095614;28;20531;-84
2021/05/31 09:07:37;;;;;;;10.18;3.05;;;23.60;43.90;;;;;;5096240;28;20066;-84
2021/05/31 09:10:07;;;;;;;8.00;3.45;;;23.70;43.30;;;;;;5096066;28;20107;-83
2021/05/31 09:12:36;;;;;;;5.65;3.17;;;23.90;43.30;;;;;;5078120;28;20103;-84
2021/05/31 09:15:08;;;;;;;6.07;3.05;;;23.90;42.40;;;;;;5096678;28;20476;-84
2021/05/31 09:17:35;;;;;;;6.82;3.20;;;24.00;43.30;;;;;;5064918;28;20032;-83
2021/05/31 09:20:03;;;;;;;7.18;3.10;;;24.10;42.70;;;;;;5102231;28;20020;-83
2021/05/31 09:22:28;;;;;;;10.20;3.60;;;24.10;42.40;;;;;;5116271;28;20111;-84
2021/05/31 09:25:05;;;;;;;9.68;4.13;;;24.10;42.90;;;;;;5098196;28;20481;-84
2021/05/31 09:27:31;;;;;;;5.68;3.50;;;24.10;41.80;;;;;;5116286;28;20031;-84
2021/05/31 09:30:06;;;;;;;6.50;3.30;;;24.10;42.60;;;;;;5116247;28;20028;-84
2021/05/31 09:32:33;;;;;;;7.13;3.28;;;24.20;43.30;;;;;;5097928;28;20024;-84
2021/05/31 09:35:08;;;;;;;9.07;3.53;;;24.40;43.30;;;;;;5097127;28;20036;-83
2021/05/31 09:37:45;;;;;;;5.55;3.20;;;24.60;43.20;;;;;;5101527;28;20031;-85
2021/05/31 09:40:11;;;;;;;6.75;3.80;;;24.90;42.90;;;;;;5097603;28;20424;-84
2021/05/31 09:42:47;;;;;;;9.10;3.60;;;25.10;41.60;;;;;;5097698;28;20028;-84
2021/05/31 09:45:13;;;;;;;7.07;3.58;;;25.10;41.40;;;;;;5095001;28;20617;-83
2021/05/31 09:47:41;;;;;;;6.13;3.55;;;25.10;41.00;;;;;;5095355;28;20107;-84
2021/05/31 09:50:09;;;;;;;4.07;2.53;;;24.90;41.30;;;;;;5077493;28;20024;-84
2021/05/31 09:52:35;;;;;;;7.47;2.70;;;24.80;40.30;;;;;;5077280;28;20101;-84
2021/05/31 09:55:11;;;;;;;5.43;2.10;;;24.60;40.00;;;;;;5077307;28;20407;-84
2021/05/31 09:57:38;;;;;;;5.50;2.60;;;24.20;39.10;;;;;;5077180;28;20396;-84
2021/05/31 10:00:14;;;;;;;6.80;2.78;;;24.20;40.20;;;;;;5077486;28;20028;-84
2021/05/31 10:10:06;;;;;;;8.38;3.88;;;23.60;42.80;;;;;;5077063;28;20052;-79
2021/05/31 10:12:32;;;;;;;7.47;3.47;;;23.30;43.00;;;;;;5095083;28;20392;-79
2021/05/31 10:14:58;;;;;;;8.07;3.70;;;23.10;43.20;;;;;;5060147;28;20024;-79
2021/05/31 10:17:25;;;;;;;5.65;3.50;;;22.90;43.90;;;;;;5059497;28;20028;-79
2021/05/31 10:19:51;;;;;;;6.88;3.80;;;22.90;44.40;;;;;;5094622;28;20095;-79
2021/05/31 10:22:17;;;;;;;6.10;3.30;;;23.20;44.30;;;;;;5076010;28;20051;-79
2021/05/31 10:24:44;;;;;;;7.90;3.03;;;23.60;43.20;;;;;;5094856;28;20020;-79
2021/05/31 10:27:13;;;;;;;9.77;3.70;;;24.10;42.00;;;;;;5060162;28;20047;-79
2021/05/31 10:29:44;;;;;;;8.38;3.35;;;24.60;41.50;;;;;;5077439;28;20044;-78
2021/05/31 10:32:12;;;;;;;8.70;3.10;;;24.80;41.20;;;;;;5109397;28;20027;-78
2021/05/31 10:34:49;;;;;;;7.47;2.80;;;25.00;41.20;;;;;;5094572;28;20103;-79
2021/05/31 10:37:23;;;;;;;7.03;2.60;;;25.20;40.90;;;;;;5095060;28;20032;-79
2021/05/31 10:40:06;;;;;;;6.38;2.78;;;25.50;40.10;;;;;;5077309;28;20374;-79
2021/05/31 10:42:39;;;;;;;8.25;2.75;;;25.70;38.50;;;;;;5093956;28;20023;-79
2021/05/31 10:45:23;;;;;;;4.82;2.92;;;25.70;39.10;;;;;;5079901;28;20031;-79
2021/05/31 10:47:55;;;;;;;7.55;2.92;;;25.60;38.20;;;;;;5096378;28;20023;-79
2021/05/31 10:50:30;;;;;;;5.90;2.83;;;25.30;38.10;;;;;;5100726;28;20102;-79
2021/05/31 10:52:56;;;;;;;4.88;2.90;;;25.00;38.80;;;;;;5090791;28;20040;-84
2021/05/31 10:55:23;;;;;;;4.88;2.75;;;24.60;39.90;;;;;;5059270;28;20039;-84
2021/05/31 10:57:49;;;;;;;8.18;2.65;;;24.60;40.50;;;;;;5094014;28;20086;-84
2021/05/31 11:00:29;;;;;;;7.50;2.80;;;24.80;39.60;;;;;;5075962;28;20508;-84
2021/05/31 11:03:11;;;;;;;10.60;2.58;;;25.10;37.80;;;;;;5076011;28;20025;-84
2021/05/31 11:05:38;;;;;;;5.10;2.67;;;25.30;37.90;;;;;;5076030;28;20024;-84
2021/05/31 11:08:07;;;;;;;4.72;2.70;;;25.50;37.90;;;;;;5075909;28;20536;-84
2021/05/31 11:10:34;;;;;;;6.13;2.67;;;25.70;38.60;;;;;;5075787;28;20480;-84
2021/05/31 11:13:15;;;;;;;9.48;3.22;;;25.80;39.00;;;;;;5094092;28;20028;-84
2021/05/31 11:15:42;;;;;;;7.38;2.90;;;25.80;39.50;;;;;;5059211;28;20131;-84
2021/05/31 11:18:08;;;;;;;5.65;2.60;;;25.60;38.90;;;;;;5093124;28;20089;-84
2021/05/31 11:20:34;;;;;;;4.78;2.25;;;25.40;38.50;;;;;;5093494;28;20028;-84
2021/05/31 11:23:06;;;;;;;5.80;2.65;;;25.40;38.40;;;;;;5085284;28;20496;-84
2021/05/31 11:25:32;;;;;;;5.18;2.20;;;25.60;38.00;;;;;;5095546;28;20024;-84
2021/05/31 11:28:03;;;;;;;3.35;2.38;;;25.80;38.20;;;;;;5092307;28;20023;-84
2021/05/31 11:30:31;;;;;;;8.38;3.38;;;26.00;38.60;;;;;;5075488;28;20144;-83
2021/05/31 11:33:01;;;;;;;6.85;2.97;;;26.10;38.50;;;;;;5104767;28;20095;-84
2021/05/31 11:35:28;;;;;;;7.78;3.20;;;26.30;38.70;;;;;;5113996;28;20115;-84
2021/05/31 11:37:55;;;;;;;5.55;3.28;;;26.30;37.90;;;;;;5078718;28;20030;-84
2021/05/31 11:40:27;;;;;;;7.97;3.53;;;26.20;38.00;;;;;;5113777;28;20024;-84
2021/05/31 11:42:55;;;;;;;7.35;3.35;;;26.20;38.20;;;;;;5113976;28;20022;-84
2021/05/31 11:45:23;;;;;;;5.75;3.30;;;25.90;38.30;;;;;;5114088;28;20019;-84
2021/05/31 11:47:57;;;;;;;7.80;3.08;;;25.70;38.60;;;;;;5113872;28;20035;-84
2021/05/31 11:50:25;;;;;;;5.55;2.97;;;25.70;38.60;;;;;;5113876;28;20020;-84
2021/05/31 11:52:51;;;;;;;5.05;3.50;;;25.90;36.70;;;;;;5089900;28;20052;-85
2021/05/31 11:55:29;;;;;;;6.70;3.40;;;25.80;38.00;;;;;;5092272;28;20034;-84
2021/05/31 11:57:55;;;;;;;8.10;3.65;;;25.30;38.80;;;;;;5092236;28;20113;-84
2021/05/31 12:00:27;;;;;;;9.82;3.83;;;25.10;39.60;;;;;;5093394;28;20477;-84
2021/05/31 12:02:53;;;;;;;7.18;4.03;;;25.10;39.40;;;;;;5093337;28;20470;-84
2021/05/31 12:05:34;;;;;;;8.52;3.83;;;25.10;39.60;;;;;;5092060;28;20047;-84
2021/05/31 12:08:06;;;;;;;8.50;3.90;;;25.10;39.30;;;;;;5093292;28;20024;-84
2021/05/31 12:10:32;;;;;;;7.45;3.70;;;25.40;40.00;;;;;;5093411;28;20016;-84
2021/05/31 12:12:58;;;;;;;7.20;3.60;;;25.60;39.70;;;;;;5092039;28;20067;-84
2021/05/31 12:15:24;;;;;;;9.65;4.20;;;25.90;39.40;;;;;;5075211;28;20056;-84
2021/05/31 12:17:52;;;;;;;6.90;3.40;;;25.90;38.10;;;;;;5091883;28;20032;-84
2021/05/31 12:20:22;;;;;;;6.78;3.40;;;26.00;38.10;;;;;;5075440;28;20035;-84
2021/05/31 12:22:48;;;;;;;10.90;4.00;;;26.00;38.50;;;;;;5092131;28;20028;-84
2021/05/31 12:25:13;;;;;;;5.00;3.25;;;26.00;38.10;;;;;;5092054;28;20028;-84
2021/05/31 12:27:40;;;;;;;6.82;3.25;;;26.00;37.70;;;;;;5093122;28;20032;-84
2021/05/31 12:30:13;;;;;;;6.95;3.53;;;25.80;38.60;;;;;;5091973;28;20020;-83
2021/05/31 12:32:39;;;;;;;9.20;4.00;;;25.70;39.10;;;;;;5091781;28;20024;-84
2021/05/31 12:35:07;;;;;;;7.47;4.00;;;25.60;38.60;;;;;;5079821;28;20451;-84
2021/05/31 12:37:35;;;;;;;4.65;3.20;;;25.50;39.10;;;;;;5072822;28;20021;-84
2021/05/31 12:40:12;;;;;;;6.47;3.53;;;25.30;39.10;;;;;;5074030;28;20031;-84
2021/05/31 12:42:39;;;;;;;5.68;2.95;;;25.30;39.30;;;;;;5076539;28;20096;-84
2021/05/31 12:45:12;;;;;;;7.32;3.50;;;25.50;39.10;;;;;;5075178;28;20480;-84
2021/05/31 12:47:57;;;;;;;7.30;3.63;;;25.60;39.10;;;;;;5076427;28;20645;-84
2021/05/31 12:50:30;;;;;;;7.32;3.83;;;25.50;38.80;;;;;;5078748;28;20480;-84
2021/05/31 12:53:05;;;;;;;9.32;3.90;;;25.50;39.60;;;;;;5076954;28;20071;-84
2021/05/31 12:55:31;;;;;;;6.63;3.78;;;25.50;38.90;;;;;;5074991;28;20433;-87
2021/05/31 12:57:57;;;;;;;6.50;3.05;;;25.50;38.70;;;;;;5074709;28;20059;-85
2021/05/31 13:00:25;;;;;;;6.80;3.67;;;25.80;39.00;;;;;;5076188;28;20025;-84
2021/05/31 13:03:01;;;;;;;6.63;3.45;;;26.00;38.40;;;;;;5079431;28;20016;-84
2021/05/31 13:05:30;;;;;;;8.95;3.30;;;26.10;38.30;;;;;;5096448;28;20080;-84
2021/05/31 13:08:01;;;;;;;6.28;3.05;;;26.20;38.60;;;;;;5095088;28;20074;-86